sensor_id;sensor_type;location;lat;lon;timestamp;temperature;humidity
38866;DHT22;62686;48.984;8.394;2022-12-15T00:02:15;-1.40;54.80
38866;DHT22;62686;48.984;8.394;2022-12-15T00:05:01;-1.40;53.80
38866;DHT22;62686;48.984;8.394;2022-12-15T00:07:46;-1.30;54.00
38866;DHT22;62686;48.984;8.394;2022-12-15T00:10:32;-1.30;53.10
38866;DHT22;62686;48.984;8.394;2022-12-15T00:13:18;-1.30;53.70
38866;DHT22;62686;48.984;8.394;2022-12-15T00:16:04;-1.30;53.40
38866;DHT22;62686;48.984;8.394;2022-12-15T00:18:51;-1.30;51.70
38866;DHT22;62686;48.984;8.394;2022-12-15T00:21:37;-1.30;50.90
38866;DHT22;62686;48.984;8.394;2022-12-15T00:24:22;-1.30;51.60
38866;DHT22;62686;48.984;8.394;2022-12-15T00:27:08;-1.30;52.50
38866;DHT22;62686;48.984;8.394;2022-12-15T00:29:53;-1.30;53.10
38866;DHT22;62686;48.984;8.394;2022-12-15T00:32:39;-1.30;51.90
38866;DHT22;62686;48.984;8.394;2022-12-15T00:35:26;-1.30;52.10
38866;DHT22;62686;48.984;8.394;2022-12-15T00:38:13;-1.40;53.40
38866;DHT22;62686;48.984;8.394;2022-12-15T00:40:59;-1.40;55.20
38866;DHT22;62686;48.984;8.394;2022-12-15T00:43:28;-1.40;57.30
38866;DHT22;62686;48.984;8.394;2022-12-15T00:45:56;-1.40;58.70
38866;DHT22;62686;48.984;8.394;2022-12-15T00:48:43;-1.40;59.70
38866;DHT22;62686;48.984;8.394;2022-12-15T00:51:13;-1.40;59.90
38866;DHT22;62686;48.984;8.394;2022-12-15T00:53:42;-1.40;59.70
38866;DHT22;62686;48.984;8.394;2022-12-15T00:56:28;-1.30;58.30
38866;DHT22;62686;48.984;8.394;2022-12-15T00:59:14;-1.40;55.60
38866;DHT22;62686;48.984;8.394;2022-12-15T01:02:00;-1.40;55.80
38866;DHT22;62686;48.984;8.394;2022-12-15T01:04:47;-1.40;56.20
38866;DHT22;62686;48.984;8.394;2022-12-15T01:07:34;-1.30;57.20
38866;DHT22;62686;48.984;8.394;2022-12-15T01:10:19;-1.30;56.40
38866;DHT22;62686;48.984;8.394;2022-12-15T01:13:05;-1.30;54.40
38866;DHT22;62686;48.984;8.394;2022-12-15T01:15:50;-1.30;53.10
38866;DHT22;62686;48.984;8.394;2022-12-15T01:18:35;-1.40;53.90
38866;DHT22;62686;48.984;8.394;2022-12-15T01:21:21;-1.40;54.80
38866;DHT22;62686;48.984;8.394;2022-12-15T01:23:52;-1.40;56.10
38866;DHT22;62686;48.984;8.394;2022-12-15T01:26:20;-1.30;55.90
38866;DHT22;62686;48.984;8.394;2022-12-15T01:28:48;-1.30;53.20
38866;DHT22;62686;48.984;8.394;2022-12-15T01:31:17;-1.30;53.90
38866;DHT22;62686;48.984;8.394;2022-12-15T01:33:45;-1.20;50.50
38866;DHT22;62686;48.984;8.394;2022-12-15T01:36:13;-1.20;47.20
38866;DHT22;62686;48.984;8.394;2022-12-15T01:38:41;-1.20;47.20
38866;DHT22;62686;48.984;8.394;2022-12-15T01:41:12;-1.30;46.80
38866;DHT22;62686;48.984;8.394;2022-12-15T01:43:39;-1.30;46.80
38866;DHT22;62686;48.984;8.394;2022-12-15T01:46:10;-1.30;47.50
38866;DHT22;62686;48.984;8.394;2022-12-15T01:48:42;-1.20;49.10
38866;DHT22;62686;48.984;8.394;2022-12-15T01:51:19;-1.30;49.70
38866;DHT22;62686;48.984;8.394;2022-12-15T01:53:53;-1.20;48.90
38866;DHT22;62686;48.984;8.394;2022-12-15T01:56:25;-1.20;46.70
38866;DHT22;62686;48.984;8.394;2022-12-15T01:59:00;-1.20;45.10
38866;DHT22;62686;48.984;8.394;2022-12-15T02:01:29;-1.30;44.40
38866;DHT22;62686;48.984;8.394;2022-12-15T02:03:57;-1.20;46.10
38866;DHT22;62686;48.984;8.394;2022-12-15T02:06:27;-1.20;47.20
38866;DHT22;62686;48.984;8.394;2022-12-15T02:08:57;-1.30;48.10
38866;DHT22;62686;48.984;8.394;2022-12-15T02:11:38;-1.30;47.50
38866;DHT22;62686;48.984;8.394;2022-12-15T02:14:09;-1.30;45.80
38866;DHT22;62686;48.984;8.394;2022-12-15T02:16:49;-1.30;44.50
38866;DHT22;62686;48.984;8.394;2022-12-15T02:19:40;-1.30;47.20
38866;DHT22;62686;48.984;8.394;2022-12-15T02:22:23;-1.30;48.90
38866;DHT22;62686;48.984;8.394;2022-12-15T02:25:09;-1.30;48.90
38866;DHT22;62686;48.984;8.394;2022-12-15T02:27:57;-1.30;48.60
38866;DHT22;62686;48.984;8.394;2022-12-15T02:30:35;-1.30;49.40
38866;DHT22;62686;48.984;8.394;2022-12-15T02:33:10;-1.30;51.80
38866;DHT22;62686;48.984;8.394;2022-12-15T02:35:51;-1.30;52.90
38866;DHT22;62686;48.984;8.394;2022-12-15T02:38:28;-1.30;52.40
38866;DHT22;62686;48.984;8.394;2022-12-15T02:40:58;-1.30;51.20
38866;DHT22;62686;48.984;8.394;2022-12-15T02:43:26;-1.30;51.40
38866;DHT22;62686;48.984;8.394;2022-12-15T02:46:05;-1.30;52.80
38866;DHT22;62686;48.984;8.394;2022-12-15T02:48:46;-1.30;53.90
38866;DHT22;62686;48.984;8.394;2022-12-15T02:51:32;-1.30;51.10
38866;DHT22;62686;48.984;8.394;2022-12-15T02:54:24;-1.20;50.90
38866;DHT22;62686;48.984;8.394;2022-12-15T02:57:01;-1.30;51.50
38866;DHT22;62686;48.984;8.394;2022-12-15T02:59:37;-1.30;51.70
38866;DHT22;62686;48.984;8.394;2022-12-15T03:02:09;-1.30;51.70
38866;DHT22;62686;48.984;8.394;2022-12-15T03:04:41;-1.40;52.20
38866;DHT22;62686;48.984;8.394;2022-12-15T03:07:13;-1.30;53.50
38866;DHT22;62686;48.984;8.394;2022-12-15T03:09:41;-1.30;51.50
38866;DHT22;62686;48.984;8.394;2022-12-15T03:12:09;-1.30;49.40
38866;DHT22;62686;48.984;8.394;2022-12-15T03:14:37;-1.30;49.50
38866;DHT22;62686;48.984;8.394;2022-12-15T03:17:05;-1.30;49.40
38866;DHT22;62686;48.984;8.394;2022-12-15T03:19:35;-1.30;50.30
38866;DHT22;62686;48.984;8.394;2022-12-15T03:22:04;-1.30;50.90
38866;DHT22;62686;48.984;8.394;2022-12-15T03:24:32;-1.30;51.60
38866;DHT22;62686;48.984;8.394;2022-12-15T03:27:00;-1.30;52.70
38866;DHT22;62686;48.984;8.394;2022-12-15T03:29:28;-1.30;53.80
38866;DHT22;62686;48.984;8.394;2022-12-15T03:31:56;-1.30;52.80
38866;DHT22;62686;48.984;8.394;2022-12-15T03:34:25;-1.30;51.40
38866;DHT22;62686;48.984;8.394;2022-12-15T03:36:54;-1.30;50.30
38866;DHT22;62686;48.984;8.394;2022-12-15T03:39:22;-1.30;49.40
38866;DHT22;62686;48.984;8.394;2022-12-15T03:41:51;-1.30;49.40
38866;DHT22;62686;48.984;8.394;2022-12-15T03:44:19;-1.40;49.60
38866;DHT22;62686;48.984;8.394;2022-12-15T03:46:47;-1.30;51.70
38866;DHT22;62686;48.984;8.394;2022-12-15T03:49:15;-1.30;50.80
38866;DHT22;62686;48.984;8.394;2022-12-15T03:51:43;-1.40;51.40
38866;DHT22;62686;48.984;8.394;2022-12-15T03:54:13;-1.40;53.50
38866;DHT22;62686;48.984;8.394;2022-12-15T03:56:41;-1.40;54.00
38866;DHT22;62686;48.984;8.394;2022-12-15T03:59:10;-1.40;54.40
38866;DHT22;62686;48.984;8.394;2022-12-15T04:01:44;-1.30;55.70
38866;DHT22;62686;48.984;8.394;2022-12-15T04:04:13;-1.40;56.10
38866;DHT22;62686;48.984;8.394;2022-12-15T04:06:41;-1.40;55.50
38866;DHT22;62686;48.984;8.394;2022-12-15T04:09:09;-1.40;55.60
38866;DHT22;62686;48.984;8.394;2022-12-15T04:11:38;-1.40;55.90
38866;DHT22;62686;48.984;8.394;2022-12-15T04:14:08;-1.40;55.50
38866;DHT22;62686;48.984;8.394;2022-12-15T04:16:36;-1.40;55.90
38866;DHT22;62686;48.984;8.394;2022-12-15T04:19:04;-1.40;56.10
38866;DHT22;62686;48.984;8.394;2022-12-15T04:21:49;-1.40;57.80
38866;DHT22;62686;48.984;8.394;2022-12-15T04:24:18;-1.40;58.80
38866;DHT22;62686;48.984;8.394;2022-12-15T04:27:04;-1.40;58.20
38866;DHT22;62686;48.984;8.394;2022-12-15T04:29:50;-1.40;57.40
38866;DHT22;62686;48.984;8.394;2022-12-15T04:32:35;-1.40;58.10
38866;DHT22;62686;48.984;8.394;2022-12-15T04:35:21;-1.40;57.50
38866;DHT22;62686;48.984;8.394;2022-12-15T04:38:06;-1.40;58.70
38866;DHT22;62686;48.984;8.394;2022-12-15T04:40:52;-1.40;60.10
38866;DHT22;62686;48.984;8.394;2022-12-15T04:43:39;-1.40;60.70
38866;DHT22;62686;48.984;8.394;2022-12-15T04:46:24;-1.40;62.60
38866;DHT22;62686;48.984;8.394;2022-12-15T04:49:10;-1.40;63.00
38866;DHT22;62686;48.984;8.394;2022-12-15T04:51:56;-1.40;63.30
38866;DHT22;62686;48.984;8.394;2022-12-15T04:54:42;-1.40;63.40
38866;DHT22;62686;48.984;8.394;2022-12-15T04:57:27;-1.40;64.40
38866;DHT22;62686;48.984;8.394;2022-12-15T05:00:15;-1.30;64.00
38866;DHT22;62686;48.984;8.394;2022-12-15T05:03:03;-1.30;63.60
38866;DHT22;62686;48.984;8.394;2022-12-15T05:05:48;-1.30;62.50
38866;DHT22;62686;48.984;8.394;2022-12-15T05:08:34;-1.30;61.60
38866;DHT22;62686;48.984;8.394;2022-12-15T05:11:20;-1.30;60.90
38866;DHT22;62686;48.984;8.394;2022-12-15T05:14:05;-1.20;59.70
38866;DHT22;62686;48.984;8.394;2022-12-15T05:16:52;-1.30;59.30
38866;DHT22;62686;48.984;8.394;2022-12-15T05:19:37;-1.30;58.70
38866;DHT22;62686;48.984;8.394;2022-12-15T05:22:23;-1.30;60.30
38866;DHT22;62686;48.984;8.394;2022-12-15T05:25:09;-1.30;60.10
38866;DHT22;62686;48.984;8.394;2022-12-15T05:27:54;-1.30;61.10
38866;DHT22;62686;48.984;8.394;2022-12-15T05:30:40;-1.30;61.20
38866;DHT22;62686;48.984;8.394;2022-12-15T05:33:27;-1.30;62.40
38866;DHT22;62686;48.984;8.394;2022-12-15T05:35:55;-1.30;62.80
38866;DHT22;62686;48.984;8.394;2022-12-15T05:38:24;-1.20;63.50
38866;DHT22;62686;48.984;8.394;2022-12-15T05:40:52;-1.20;62.50
38866;DHT22;62686;48.984;8.394;2022-12-15T05:43:23;-1.20;62.70
38866;DHT22;62686;48.984;8.394;2022-12-15T05:45:52;-1.20;61.80
38866;DHT22;62686;48.984;8.394;2022-12-15T05:48:20;-1.20;62.80
38866;DHT22;62686;48.984;8.394;2022-12-15T05:50:50;-1.20;62.70
38866;DHT22;62686;48.984;8.394;2022-12-15T05:53:18;-1.20;62.30
38866;DHT22;62686;48.984;8.394;2022-12-15T05:55:46;-1.20;61.50
38866;DHT22;62686;48.984;8.394;2022-12-15T05:58:14;-1.20;62.50
38866;DHT22;62686;48.984;8.394;2022-12-15T06:00:42;-1.20;62.70
38866;DHT22;62686;48.984;8.394;2022-12-15T06:03:10;-1.20;62.80
38866;DHT22;62686;48.984;8.394;2022-12-15T06:05:38;-1.20;63.20
38866;DHT22;62686;48.984;8.394;2022-12-15T06:08:08;-1.20;63.70
38866;DHT22;62686;48.984;8.394;2022-12-15T06:10:36;-1.20;64.90
38866;DHT22;62686;48.984;8.394;2022-12-15T06:13:04;-1.20;64.00
38866;DHT22;62686;48.984;8.394;2022-12-15T06:15:32;-1.20;64.70
38866;DHT22;62686;48.984;8.394;2022-12-15T06:18:00;-1.10;63.90
38866;DHT22;62686;48.984;8.394;2022-12-15T06:20:28;-1.10;63.60
38866;DHT22;62686;48.984;8.394;2022-12-15T06:22:56;-1.10;61.40
38866;DHT22;62686;48.984;8.394;2022-12-15T06:25:26;-1.20;60.70
38866;DHT22;62686;48.984;8.394;2022-12-15T06:27:54;-1.20;62.30
38866;DHT22;62686;48.984;8.394;2022-12-15T06:30:25;-1.20;65.10
38866;DHT22;62686;48.984;8.394;2022-12-15T06:32:53;-1.20;66.70
38866;DHT22;62686;48.984;8.394;2022-12-15T06:35:22;-1.20;67.30
38866;DHT22;62686;48.984;8.394;2022-12-15T06:37:50;-1.10;67.50
38866;DHT22;62686;48.984;8.394;2022-12-15T06:40:18;-1.10;67.60
38866;DHT22;62686;48.984;8.394;2022-12-15T06:42:48;-1.10;65.90
38866;DHT22;62686;48.984;8.394;2022-12-15T06:45:16;-1.10;64.70
38866;DHT22;62686;48.984;8.394;2022-12-15T06:47:44;-1.10;63.90
38866;DHT22;62686;48.984;8.394;2022-12-15T06:50:12;-1.10;62.90
38866;DHT22;62686;48.984;8.394;2022-12-15T06:52:40;-1.10;62.60
38866;DHT22;62686;48.984;8.394;2022-12-15T06:55:08;-1.00;63.40
38866;DHT22;62686;48.984;8.394;2022-12-15T06:57:37;-1.10;61.90
38866;DHT22;62686;48.984;8.394;2022-12-15T07:00:08;-1.00;62.30
38866;DHT22;62686;48.984;8.394;2022-12-15T07:02:36;-1.00;61.60
38866;DHT22;62686;48.984;8.394;2022-12-15T07:05:05;-1.00;60.30
38866;DHT22;62686;48.984;8.394;2022-12-15T07:07:33;-1.10;59.40
38866;DHT22;62686;48.984;8.394;2022-12-15T07:10:01;-1.00;60.00
38866;DHT22;62686;48.984;8.394;2022-12-15T07:12:30;-1.10;59.30
38866;DHT22;62686;48.984;8.394;2022-12-15T07:14:58;-1.00;59.00
38866;DHT22;62686;48.984;8.394;2022-12-15T07:17:27;-1.10;58.90
38866;DHT22;62686;48.984;8.394;2022-12-15T07:19:55;-1.10;59.40
38866;DHT22;62686;48.984;8.394;2022-12-15T07:22:23;-1.10;59.50
38866;DHT22;62686;48.984;8.394;2022-12-15T07:24:51;-1.10;58.70
38866;DHT22;62686;48.984;8.394;2022-12-15T07:27:20;-1.20;58.70
38866;DHT22;62686;48.984;8.394;2022-12-15T07:29:48;-1.10;59.30
38866;DHT22;62686;48.984;8.394;2022-12-15T07:32:16;-1.10;58.10
38866;DHT22;62686;48.984;8.394;2022-12-15T07:34:45;-1.10;57.40
38866;DHT22;62686;48.984;8.394;2022-12-15T07:37:14;-1.10;57.50
38866;DHT22;62686;48.984;8.394;2022-12-15T07:39:42;-1.10;56.90
38866;DHT22;62686;48.984;8.394;2022-12-15T07:42:10;-1.10;56.80
38866;DHT22;62686;48.984;8.394;2022-12-15T07:44:39;-1.00;54.90
38866;DHT22;62686;48.984;8.394;2022-12-15T07:47:07;-1.00;54.00
38866;DHT22;62686;48.984;8.394;2022-12-15T07:49:35;-1.00;53.30
38866;DHT22;62686;48.984;8.394;2022-12-15T07:52:05;-0.90;51.30
38866;DHT22;62686;48.984;8.394;2022-12-15T07:54:33;-1.00;49.90
38866;DHT22;62686;48.984;8.394;2022-12-15T07:57:02;-0.80;48.90
38866;DHT22;62686;48.984;8.394;2022-12-15T07:59:32;-0.80;46.70
38866;DHT22;62686;48.984;8.394;2022-12-15T08:02:00;-0.70;42.80
38866;DHT22;62686;48.984;8.394;2022-12-15T08:04:30;-0.70;41.90
38866;DHT22;62686;48.984;8.394;2022-12-15T08:06:58;-0.70;42.90
38866;DHT22;62686;48.984;8.394;2022-12-15T08:09:28;-0.70;42.00
38866;DHT22;62686;48.984;8.394;2022-12-15T08:11:57;-0.60;38.60
38866;DHT22;62686;48.984;8.394;2022-12-15T08:14:27;-0.50;38.50
38866;DHT22;62686;48.984;8.394;2022-12-15T08:16:56;-0.40;33.90
38866;DHT22;62686;48.984;8.394;2022-12-15T08:19:31;-0.40;25.70
38866;DHT22;62686;48.984;8.394;2022-12-15T08:22:00;-0.40;22.30
38866;DHT22;62686;48.984;8.394;2022-12-15T08:24:43;-0.40;21.40
38866;DHT22;62686;48.984;8.394;2022-12-15T08:27:14;-0.40;17.50
38866;DHT22;62686;48.984;8.394;2022-12-15T08:29:43;-0.50;17.30
38866;DHT22;62686;48.984;8.394;2022-12-15T08:32:16;-0.50;16.90
38866;DHT22;62686;48.984;8.394;2022-12-15T08:34:45;-0.60;17.60
38866;DHT22;62686;48.984;8.394;2022-12-15T08:37:16;-0.60;16.60
38866;DHT22;62686;48.984;8.394;2022-12-15T08:39:47;-0.70;19.60
38866;DHT22;62686;48.984;8.394;2022-12-15T08:42:18;-0.70;21.30
38866;DHT22;62686;48.984;8.394;2022-12-15T08:44:48;-0.70;23.10
38866;DHT22;62686;48.984;8.394;2022-12-15T08:47:18;-0.70;23.70
38866;DHT22;62686;48.984;8.394;2022-12-15T08:49:50;-0.60;20.30
38866;DHT22;62686;48.984;8.394;2022-12-15T08:52:23;-0.50;18.80
38866;DHT22;62686;48.984;8.394;2022-12-15T08:54:54;-0.40;17.50
38866;DHT22;62686;48.984;8.394;2022-12-15T08:57:23;-0.40;14.70
38866;DHT22;62686;48.984;8.394;2022-12-15T08:59:53;-0.40;8.40
38866;DHT22;62686;48.984;8.394;2022-12-15T09:02:22;-0.40;7.20
38866;DHT22;62686;48.984;8.394;2022-12-15T09:04:53;-0.40;4.70
38866;DHT22;62686;48.984;8.394;2022-12-15T09:07:23;-0.40;7.70
38866;DHT22;62686;48.984;8.394;2022-12-15T09:09:55;-0.40;6.00
38866;DHT22;62686;48.984;8.394;2022-12-15T09:12:26;-0.40;3.10
38866;DHT22;62686;48.984;8.394;2022-12-15T09:14:55;-0.40;3.70
38866;DHT22;62686;48.984;8.394;2022-12-15T09:17:25;-0.50;5.10
38866;DHT22;62686;48.984;8.394;2022-12-15T09:19:53;-0.60;9.60
38866;DHT22;62686;48.984;8.394;2022-12-15T09:22:23;-0.60;7.60
38866;DHT22;62686;48.984;8.394;2022-12-15T09:24:51;-0.60;8.20
38866;DHT22;62686;48.984;8.394;2022-12-15T09:27:21;-0.70;11.70
38866;DHT22;62686;48.984;8.394;2022-12-15T09:29:50;-0.70;16.80
38866;DHT22;62686;48.984;8.394;2022-12-15T09:32:19;-0.60;17.60
38866;DHT22;62686;48.984;8.394;2022-12-15T09:34:49;-0.50;4.60
38866;DHT22;62686;48.984;8.394;2022-12-15T09:37:18;-0.30;4.60
38866;DHT22;62686;48.984;8.394;2022-12-15T09:39:47;-0.20;1.00
38866;DHT22;62686;48.984;8.394;2022-12-15T09:42:23;-0.10;1.00
38866;DHT22;62686;48.984;8.394;2022-12-15T09:45:00;0.00;1.00
38866;DHT22;62686;48.984;8.394;2022-12-15T09:47:36;0.00;1.00
38866;DHT22;62686;48.984;8.394;2022-12-15T09:50:10;-0.10;1.00
38866;DHT22;62686;48.984;8.394;2022-12-15T09:52:46;-0.20;1.00
38866;DHT22;62686;48.984;8.394;2022-12-15T09:55:18;-0.30;1.00
38866;DHT22;62686;48.984;8.394;2022-12-15T09:57:53;-0.20;1.00
38866;DHT22;62686;48.984;8.394;2022-12-15T10:00:24;-0.20;1.00
38866;DHT22;62686;48.984;8.394;2022-12-15T10:03:28;0.00;1.00
38866;DHT22;62686;48.984;8.394;2022-12-15T10:06:09;0.20;1.00
38866;DHT22;62686;48.984;8.394;2022-12-15T10:08:44;0.20;1.00
38866;DHT22;62686;48.984;8.394;2022-12-15T10:11:19;0.20;1.00
38866;DHT22;62686;48.984;8.394;2022-12-15T10:13:55;0.10;1.00
38866;DHT22;62686;48.984;8.394;2022-12-15T10:16:33;0.10;1.00
38866;DHT22;62686;48.984;8.394;2022-12-15T10:19:07;0.00;1.00
38866;DHT22;62686;48.984;8.394;2022-12-15T10:21:41;0.10;1.00
38866;DHT22;62686;48.984;8.394;2022-12-15T10:24:23;0.20;1.00
38866;DHT22;62686;48.984;8.394;2022-12-15T10:27:25;0.30;1.00
38866;DHT22;62686;48.984;8.394;2022-12-15T10:30:02;0.40;1.00
38866;DHT22;62686;48.984;8.394;2022-12-15T10:32:42;0.50;1.00
38866;DHT22;62686;48.984;8.394;2022-12-15T10:35:19;0.60;1.00
38866;DHT22;62686;48.984;8.394;2022-12-15T10:37:50;0.70;1.00
38866;DHT22;62686;48.984;8.394;2022-12-15T10:43:16;0.80;1.00
38866;DHT22;62686;48.984;8.394;2022-12-15T10:46:27;0.70;1.00
38866;DHT22;62686;48.984;8.394;2022-12-15T10:49:58;0.80;1.00
38866;DHT22;62686;48.984;8.394;2022-12-15T12:32:05;1.10;1.00
38866;DHT22;62686;48.984;8.394;2022-12-15T12:34:53;1.20;1.00
38866;DHT22;62686;48.984;8.394;2022-12-15T12:37:26;1.20;1.00
38866;DHT22;62686;48.984;8.394;2022-12-15T12:40:03;1.20;1.00
38866;DHT22;62686;48.984;8.394;2022-12-15T12:42:38;1.20;1.00
38866;DHT22;62686;48.984;8.394;2022-12-15T12:45:16;1.10;1.00
38866;DHT22;62686;48.984;8.394;2022-12-15T12:47:50;1.20;1.00
38866;DHT22;62686;48.984;8.394;2022-12-15T12:50:25;1.10;1.00
38866;DHT22;62686;48.984;8.394;2022-12-15T12:52:56;1.00;1.00
38866;DHT22;62686;48.984;8.394;2022-12-15T12:55:37;1.00;1.00
38866;DHT22;62686;48.984;8.394;2022-12-15T12:58:29;1.10;1.00
38866;DHT22;62686;48.984;8.394;2022-12-15T13:01:13;1.20;1.00
38866;DHT22;62686;48.984;8.394;2022-12-15T13:04:05;1.30;1.00
38866;DHT22;62686;48.984;8.394;2022-12-15T13:07:03;1.30;1.00
38866;DHT22;62686;48.984;8.394;2022-12-15T13:09:41;1.40;1.00
38866;DHT22;62686;48.984;8.394;2022-12-15T13:13:14;1.60;1.00
38866;DHT22;62686;48.984;8.394;2022-12-15T13:16:07;1.50;1.00
38866;DHT22;62686;48.984;8.394;2022-12-15T13:33:26;1.70;1.00
38866;DHT22;62686;48.984;8.394;2022-12-15T13:42:56;1.80;1.00
38866;DHT22;62686;48.984;8.394;2022-12-15T13:45:38;1.90;1.00
38866;DHT22;62686;48.984;8.394;2022-12-15T13:48:35;1.70;1.00
38866;DHT22;62686;48.984;8.394;2022-12-15T13:51:27;1.60;1.00
38866;DHT22;62686;48.984;8.394;2022-12-15T13:54:02;1.60;1.00
38866;DHT22;62686;48.984;8.394;2022-12-15T13:56:55;1.50;1.00
38866;DHT22;62686;48.984;8.394;2022-12-15T13:59:51;1.50;1.00
38866;DHT22;62686;48.984;8.394;2022-12-15T14:02:36;1.50;1.00
38866;DHT22;62686;48.984;8.394;2022-12-15T14:05:16;1.50;1.00
38866;DHT22;62686;48.984;8.394;2022-12-15T14:07:55;1.40;1.00
38866;DHT22;62686;48.984;8.394;2022-12-15T14:10:27;1.20;1.00
38866;DHT22;62686;48.984;8.394;2022-12-15T14:12:59;1.20;1.00
38866;DHT22;62686;48.984;8.394;2022-12-15T14:15:33;1.10;1.00
38866;DHT22;62686;48.984;8.394;2022-12-15T14:18:02;1.00;1.00
38866;DHT22;62686;48.984;8.394;2022-12-15T14:20:39;0.90;1.00
38866;DHT22;62686;48.984;8.394;2022-12-15T14:23:17;0.70;1.00
38866;DHT22;62686;48.984;8.394;2022-12-15T14:25:52;0.60;1.00
38866;DHT22;62686;48.984;8.394;2022-12-15T14:28:26;0.50;1.00
38866;DHT22;62686;48.984;8.394;2022-12-15T14:30:59;0.30;1.00
38866;DHT22;62686;48.984;8.394;2022-12-15T14:33:28;0.20;1.00
38866;DHT22;62686;48.984;8.394;2022-12-15T14:36:00;0.20;1.00
38866;DHT22;62686;48.984;8.394;2022-12-15T14:38:33;0.10;1.00
38866;DHT22;62686;48.984;8.394;2022-12-15T14:41:05;0.00;1.00
38866;DHT22;62686;48.984;8.394;2022-12-15T14:43:37;0.00;1.00
38866;DHT22;62686;48.984;8.394;2022-12-15T14:46:08;0.00;1.00
38866;DHT22;62686;48.984;8.394;2022-12-15T14:48:38;0.00;1.00
38866;DHT22;62686;48.984;8.394;2022-12-15T14:51:12;0.10;1.00
38866;DHT22;62686;48.984;8.394;2022-12-15T14:53:42;0.00;1.00
38866;DHT22;62686;48.984;8.394;2022-12-15T14:56:23;0.00;1.00
38866;DHT22;62686;48.984;8.394;2022-12-15T14:58:58;0.00;1.00
38866;DHT22;62686;48.984;8.394;2022-12-15T15:01:34;0.10;1.00
38866;DHT22;62686;48.984;8.394;2022-12-15T15:04:04;0.00;1.00
38866;DHT22;62686;48.984;8.394;2022-12-15T15:06:36;0.00;1.00
38866;DHT22;62686;48.984;8.394;2022-12-15T15:09:18;-0.10;1.00
38866;DHT22;62686;48.984;8.394;2022-12-15T15:11:49;-0.20;1.00
38866;DHT22;62686;48.984;8.394;2022-12-15T15:14:22;-0.30;1.00
38866;DHT22;62686;48.984;8.394;2022-12-15T15:17:05;-0.30;1.00
38866;DHT22;62686;48.984;8.394;2022-12-15T15:19:36;-0.40;1.00
38866;DHT22;62686;48.984;8.394;2022-12-15T15:22:22;-0.50;1.00
38866;DHT22;62686;48.984;8.394;2022-12-15T15:24:51;-0.50;1.00
38866;DHT22;62686;48.984;8.394;2022-12-15T15:27:40;-0.50;1.00
38866;DHT22;62686;48.984;8.394;2022-12-15T15:30:15;-0.60;1.00
38866;DHT22;62686;48.984;8.394;2022-12-15T15:32:54;-0.70;1.00
38866;DHT22;62686;48.984;8.394;2022-12-15T15:35:27;-0.70;1.00
38866;DHT22;62686;48.984;8.394;2022-12-15T15:38:00;-0.80;1.20
38866;DHT22;62686;48.984;8.394;2022-12-15T15:40:30;-0.90;1.00
38866;DHT22;62686;48.984;8.394;2022-12-15T15:42:59;-0.90;1.10
38866;DHT22;62686;48.984;8.394;2022-12-15T15:45:27;-1.00;6.10
38866;DHT22;62686;48.984;8.394;2022-12-15T15:47:55;-1.00;8.10
38866;DHT22;62686;48.984;8.394;2022-12-15T15:50:27;-1.10;8.60
38866;DHT22;62686;48.984;8.394;2022-12-15T15:52:56;-1.10;8.40
38866;DHT22;62686;48.984;8.394;2022-12-15T15:55:27;-1.10;8.90
38866;DHT22;62686;48.984;8.394;2022-12-15T15:57:58;-1.20;10.90
38866;DHT22;62686;48.984;8.394;2022-12-15T16:00:26;-1.20;13.00
38866;DHT22;62686;48.984;8.394;2022-12-15T16:02:54;-1.20;15.10
38866;DHT22;62686;48.984;8.394;2022-12-15T16:05:22;-1.30;15.60
38866;DHT22;62686;48.984;8.394;2022-12-15T16:07:50;-1.30;18.00
38866;DHT22;62686;48.984;8.394;2022-12-15T16:10:19;-1.30;13.70
38866;DHT22;62686;48.984;8.394;2022-12-15T16:12:50;-1.30;13.00
38866;DHT22;62686;48.984;8.394;2022-12-15T16:15:21;-1.30;15.60
38866;DHT22;62686;48.984;8.394;2022-12-15T16:17:52;-1.30;14.80
38866;DHT22;62686;48.984;8.394;2022-12-15T16:20:22;-1.30;15.40
38866;DHT22;62686;48.984;8.394;2022-12-15T16:22:53;-1.30;14.60
38866;DHT22;62686;48.984;8.394;2022-12-15T16:25:29;-1.40;14.80
38866;DHT22;62686;48.984;8.394;2022-12-15T16:28:08;-1.40;16.10
38866;DHT22;62686;48.984;8.394;2022-12-15T16:30:37;-1.40;19.80
38866;DHT22;62686;48.984;8.394;2022-12-15T16:33:06;-1.50;13.40
38866;DHT22;62686;48.984;8.394;2022-12-15T16:35:35;-1.50;16.90
38866;DHT22;62686;48.984;8.394;2022-12-15T16:38:03;-1.50;16.70
38866;DHT22;62686;48.984;8.394;2022-12-15T16:40:35;-1.50;16.50
38866;DHT22;62686;48.984;8.394;2022-12-15T16:43:12;-1.50;19.30
38866;DHT22;62686;48.984;8.394;2022-12-15T16:45:42;-1.50;16.90
38866;DHT22;62686;48.984;8.394;2022-12-15T16:48:11;-1.60;17.80
38866;DHT22;62686;48.984;8.394;2022-12-15T16:50:41;-1.60;19.70
38866;DHT22;62686;48.984;8.394;2022-12-15T16:53:14;-1.60;22.40
38866;DHT22;62686;48.984;8.394;2022-12-15T16:55:43;-1.60;22.30
38866;DHT22;62686;48.984;8.394;2022-12-15T16:58:14;-1.50;22.70
38866;DHT22;62686;48.984;8.394;2022-12-15T17:00:44;-1.60;22.10
38866;DHT22;62686;48.984;8.394;2022-12-15T17:03:13;-1.60;22.70
38866;DHT22;62686;48.984;8.394;2022-12-15T17:05:46;-1.60;24.60
38866;DHT22;62686;48.984;8.394;2022-12-15T17:08:17;-1.60;23.50
38866;DHT22;62686;48.984;8.394;2022-12-15T17:10:48;-1.50;25.80
38866;DHT22;62686;48.984;8.394;2022-12-15T17:13:24;-1.60;25.70
38866;DHT22;62686;48.984;8.394;2022-12-15T17:15:59;-1.50;26.00
38866;DHT22;62686;48.984;8.394;2022-12-15T17:18:27;-1.50;22.50
38866;DHT22;62686;48.984;8.394;2022-12-15T17:21:01;-1.50;20.90
38866;DHT22;62686;48.984;8.394;2022-12-15T17:23:31;-1.50;19.60
38866;DHT22;62686;48.984;8.394;2022-12-15T17:26:01;-1.60;21.20
38866;DHT22;62686;48.984;8.394;2022-12-15T17:28:48;-1.60;21.50
38866;DHT22;62686;48.984;8.394;2022-12-15T17:31:18;-1.50;19.80
38866;DHT22;62686;48.984;8.394;2022-12-15T17:33:47;-1.50;20.80
38866;DHT22;62686;48.984;8.394;2022-12-15T17:36:18;-1.40;19.40
38866;DHT22;62686;48.984;8.394;2022-12-15T17:38:49;-1.40;7.30
38866;DHT22;62686;48.984;8.394;2022-12-15T17:41:18;-1.40;9.60
38866;DHT22;62686;48.984;8.394;2022-12-15T17:44:02;-1.30;6.90
38866;DHT22;62686;48.984;8.394;2022-12-15T17:46:49;-1.30;9.60
38866;DHT22;62686;48.984;8.394;2022-12-15T17:49:18;-1.30;6.70
38866;DHT22;62686;48.984;8.394;2022-12-15T17:51:46;-1.30;1.00
38866;DHT22;62686;48.984;8.394;2022-12-15T17:54:17;-1.30;1.00
38866;DHT22;62686;48.984;8.394;2022-12-15T17:56:46;-1.30;1.00
38866;DHT22;62686;48.984;8.394;2022-12-15T17:59:18;-1.20;1.00
38866;DHT22;62686;48.984;8.394;2022-12-15T18:01:47;-1.30;1.00
38866;DHT22;62686;48.984;8.394;2022-12-15T18:04:15;-1.20;1.00
38866;DHT22;62686;48.984;8.394;2022-12-15T18:06:43;-1.20;1.00
38866;DHT22;62686;48.984;8.394;2022-12-15T18:09:14;-1.20;1.00
38866;DHT22;62686;48.984;8.394;2022-12-15T18:11:43;-1.20;1.00
38866;DHT22;62686;48.984;8.394;2022-12-15T18:14:13;-1.20;1.00
38866;DHT22;62686;48.984;8.394;2022-12-15T18:16:44;-1.20;1.00
38866;DHT22;62686;48.984;8.394;2022-12-15T18:19:12;-1.20;1.00
38866;DHT22;62686;48.984;8.394;2022-12-15T18:21:41;-1.20;1.00
38866;DHT22;62686;48.984;8.394;2022-12-15T18:24:11;-1.20;1.00
38866;DHT22;62686;48.984;8.394;2022-12-15T18:26:39;-1.20;1.00
38866;DHT22;62686;48.984;8.394;2022-12-15T18:29:12;-1.20;3.40
38866;DHT22;62686;48.984;8.394;2022-12-15T18:31:45;-1.10;1.00